Time;durP1;ratioP1;P1;durP2;ratioP2;P2;SDS_P1;SDS_P2;PMS_P1;PMS_P2;Temp;Humidity;BMP_temperature;BMP_pressure;BME280_temperature;BME280_humidity;BME280_pressure;Samples;Min_cycle;Max_cycle;Signal;HPM_P1;HPM_P2
2022/09/17 00:00:49;;;;;;;4.50;4.10;;;14.50;99.90;;;;;;6203857;28;20469;-69
2022/09/17 00:03:54;;;;;;;5.37;4.87;;;14.40;99.90;;;;;;6203836;28;20477;-70
2022/09/17 00:06:57;;;;;;;6.07;5.40;;;14.40;99.90;;;;;;6203865;28;20535;-68
2022/09/17 00:10:02;;;;;;;4.90;4.40;;;14.40;99.90;;;;;;6203701;28;20473;-67
2022/09/17 00:13:05;;;;;;;5.60;5.17;;;14.50;99.90;;;;;;6204014;28;20477;-66
2022/09/17 00:16:08;;;;;;;4.87;4.40;;;14.50;99.90;;;;;;6205272;28;20536;-70
2022/09/17 00:19:15;;;;;;;4.93;4.47;;;14.50;99.90;;;;;;6203279;28;20480;-67
2022/09/17 00:22:18;;;;;;;5.27;4.77;;;14.50;99.90;;;;;;6202457;28;20481;-67
2022/09/17 00:25:22;;;;;;;5.80;4.97;;;14.50;99.90;;;;;;6202102;28;20593;-67
2022/09/17 00:28:26;;;;;;;6.90;6.07;;;14.60;99.90;;;;;;6176945;28;20470;-67
2022/09/17 00:31:30;;;;;;;5.03;4.60;;;14.60;99.90;;;;;;6188905;28;20472;-67
2022/09/17 00:34:33;;;;;;;5.27;4.87;;;14.50;99.90;;;;;;6204552;28;20483;-68
2022/09/17 00:37:36;;;;;;;5.00;4.50;;;14.40;99.90;;;;;;6211769;28;20554;-67
2022/09/17 00:40:41;;;;;;;4.80;4.40;;;14.40;99.90;;;;;;6208647;28;20964;-67
2022/09/17 00:43:46;;;;;;;5.07;4.57;;;14.50;99.90;;;;;;6214052;28;20485;-68
2022/09/17 00:46:52;;;;;;;5.87;5.13;;;14.60;99.90;;;;;;6205062;28;21180;-68
2022/09/17 00:49:58;;;;;;;6.70;4.90;;;14.70;99.90;;;;;;6202818;28;20483;-68
2022/09/17 00:53:06;;;;;;;6.53;4.90;;;14.60;99.90;;;;;;6202915;28;20473;-68
2022/09/17 00:56:18;;;;;;;4.40;4.10;;;14.50;99.90;;;;;;6202927;28;20474;-68
2022/09/17 00:59:21;;;;;;;4.83;4.40;;;14.50;99.90;;;;;;6202388;28;20918;-68
2022/09/17 01:02:25;;;;;;;4.37;4.07;;;14.60;99.90;;;;;;6203050;28;20495;-68
2022/09/17 01:05:36;;;;;;;4.37;3.97;;;14.60;99.90;;;;;;6202524;28;20468;-67
2022/09/17 01:08:51;;;;;;;3.93;3.50;;;14.50;99.90;;;;;;6202559;28;20469;-68
2022/09/17 01:12:22;;;;;;;4.20;3.80;;;14.60;99.90;;;;;;6202028;28;20484;-67
2022/09/17 01:15:34;;;;;;;3.23;2.90;;;14.70;99.90;;;;;;6202027;28;20488;-67
2022/09/17 01:18:49;;;;;;;4.33;3.93;;;14.60;99.90;;;;;;6201997;28;20473;-67
2022/09/17 01:22:01;;;;;;;4.43;4.00;;;14.60;99.90;;;;;;6202422;28;20481;-68
2022/09/17 01:25:21;;;;;;;5.10;4.70;;;14.60;99.90;;;;;;6201651;28;20548;-67
2022/09/17 01:28:41;;;;;;;4.10;3.70;;;14.60;99.90;;;;;;6201982;28;20473;-67
2022/09/17 01:31:53;;;;;;;4.60;4.20;;;14.60;99.90;;;;;;6202232;28;20480;-67
2022/09/17 01:35:04;;;;;;;3.30;2.97;;;14.60;99.90;;;;;;6201308;28;20476;-67
2022/09/17 01:38:13;;;;;;;3.67;3.37;;;14.60;99.90;;;;;;6201954;28;20980;-67
2022/09/17 01:41:27;;;;;;;4.50;4.10;;;14.60;99.90;;;;;;6201325;28;20464;-67
2022/09/17 01:44:37;;;;;;;4.80;4.40;;;14.60;99.90;;;;;;6197285;28;20473;-67
2022/09/17 01:47:47;;;;;;;4.70;3.90;;;14.60;99.90;;;;;;6201545;28;20477;-67
2022/09/17 01:50:55;;;;;;;4.60;4.20;;;14.70;99.90;;;;;;6201661;28;20532;-67
2022/09/17 01:54:01;;;;;;;3.90;3.60;;;14.70;99.90;;;;;;6201476;28;20485;-67
2022/09/17 01:57:09;;;;;;;3.77;3.47;;;14.70;99.90;;;;;;6201627;28;20473;-67
2022/09/17 02:00:16;;;;;;;4.60;4.20;;;14.70;99.90;;;;;;6201557;28;20539;-68
2022/09/17 02:03:25;;;;;;;4.40;4.00;;;14.70;99.90;;;;;;6201745;28;20483;-68
2022/09/17 02:06:31;;;;;;;4.93;4.53;;;14.70;99.90;;;;;;6201102;28;20961;-68
2022/09/17 02:09:41;;;;;;;4.53;4.13;;;14.60;99.90;;;;;;6201819;28;20476;-68
2022/09/17 02:12:49;;;;;;;5.20;4.80;;;14.60;99.90;;;;;;6201041;28;20481;-68
2022/09/17 02:15:57;;;;;;;6.20;3.83;;;14.70;99.90;;;;;;6201352;28;20868;-67
2022/09/17 02:19:05;;;;;;;5.60;5.10;;;14.60;99.90;;;;;;6200735;28;20556;-67
2022/09/17 02:22:19;;;;;;;5.33;4.93;;;14.50;99.90;;;;;;6204073;28;20473;-67
2022/09/17 02:25:26;;;;;;;6.07;4.70;;;14.50;99.90;;;;;;6206083;28;20508;-67
2022/09/17 02:28:37;;;;;;;5.27;4.83;;;14.50;99.90;;;;;;6206199;28;20485;-67
2022/09/17 02:31:41;;;;;;;5.43;4.93;;;14.40;99.90;;;;;;6205914;28;20969;-67
2022/09/17 02:34:46;;;;;;;6.57;5.97;;;14.40;99.90;;;;;;6206053;28;20481;-67
2022/09/17 02:37:51;;;;;;;5.80;5.20;;;14.50;99.90;;;;;;6205476;28;20889;-66
2022/09/17 02:41:01;;;;;;;5.87;5.37;;;14.50;99.90;;;;;;6206047;28;20476;-68
2022/09/17 02:44:14;;;;;;;5.73;5.23;;;14.50;99.90;;;;;;6205404;28;20481;-68
2022/09/17 02:47:37;;;;;;;5.33;4.83;;;14.50;99.90;;;;;;6205850;28;20979;-67
2022/09/17 02:51:01;;;;;;;4.67;4.27;;;14.50;99.90;;;;;;6205152;28;20555;-67
2022/09/17 02:54:13;;;;;;;6.07;5.57;;;14.50;99.90;;;;;;6205429;28;20469;-67
2022/09/17 02:57:23;;;;;;;4.60;4.07;;;14.60;99.90;;;;;;6206181;28;20488;-67
2022/09/17 03:00:27;;;;;;;6.00;5.50;;;14.60;99.90;;;;;;6207356;28;20468;-66
2022/09/17 03:03:35;;;;;;;5.20;4.80;;;14.60;99.90;;;;;;6207488;28;20582;-66
2022/09/17 03:06:40;;;;;;;4.90;4.50;;;14.60;99.90;;;;;;6205144;28;20469;-66
2022/09/17 03:09:43;;;;;;;5.23;4.73;;;14.60;99.90;;;;;;6205587;28;20512;-67
2022/09/17 03:12:46;;;;;;;5.43;4.93;;;14.60;99.90;;;;;;6205404;28;20465;-67
2022/09/17 03:15:49;;;;;;;5.87;5.27;;;14.60;99.90;;;;;;6204942;28;20473;-67
2022/09/17 03:18:53;;;;;;;5.70;5.20;;;14.70;99.90;;;;;;6205074;28;20535;-67
2022/09/17 03:21:57;;;;;;;6.63;5.93;;;14.70;99.90;;;;;;6204756;28;20488;-67
2022/09/17 03:25:00;;;;;;;7.30;5.87;;;14.70;99.90;;;;;;6204939;28;20473;-68
2022/09/17 03:28:03;;;;;;;5.10;4.60;;;14.70;99.90;;;;;;6204193;28;20983;-67
2022/09/17 03:31:06;;;;;;;6.10;5.50;;;14.70;99.90;;;;;;6204641;28;20469;-67
2022/09/17 03:34:09;;;;;;;5.63;5.03;;;14.60;99.90;;;;;;6204195;28;21199;-66
2022/09/17 03:37:14;;;;;;;5.47;4.97;;;14.60;99.90;;;;;;6204682;28;20534;-67
2022/09/17 03:40:18;;;;;;;6.70;6.10;;;14.60;99.90;;;;;;6204284;28;20465;-67
2022/09/17 03:43:21;;;;;;;5.77;5.07;;;14.60;99.90;;;;;;6204602;28;20492;-66
2022/09/17 03:46:25;;;;;;;5.60;5.10;;;14.60;99.90;;;;;;6204293;28;20484;-66
2022/09/17 03:49:28;;;;;;;7.20;6.50;;;14.60;99.90;;;;;;6204217;28;20548;-67
2022/09/17 03:52:32;;;;;;;6.47;5.93;;;14.50;99.90;;;;;;6204103;28;21007;-66
2022/09/17 03:55:38;;;;;;;5.83;5.33;;;14.50;99.90;;;;;;6204310;28;20473;-68
2022/09/17 03:58:41;;;;;;;5.90;5.40;;;14.50;99.90;;;;;;6204449;28;20551;-67
2022/09/17 04:01:44;;;;;;;6.20;5.60;;;14.50;99.90;;;;;;6204095;28;20480;-67
2022/09/17 04:04:47;;;;;;;5.70;5.20;;;14.50;99.90;;;;;;6203961;28;20492;-67
2022/09/17 04:07:52;;;;;;;6.90;6.30;;;14.50;99.90;;;;;;6203532;28;20508;-67
2022/09/17 04:10:55;;;;;;;6.93;6.33;;;14.50;99.90;;;;;;6203626;28;20484;-67
2022/09/17 04:13:58;;;;;;;12.13;6.60;;;14.50;99.90;;;;;;6203473;28;20476;-68
2022/09/17 04:17:01;;;;;;;5.00;4.60;;;14.50;99.90;;;;;;6203689;28;20473;-68
2022/09/17 04:20:05;;;;;;;8.00;4.67;;;14.60;99.90;;;;;;6203580;28;20566;-68
2022/09/17 04:23:11;;;;;;;5.23;4.73;;;14.60;99.90;;;;;;6203469;28;20487;-68
2022/09/17 04:26:14;;;;;;;5.40;4.90;;;14.50;99.90;;;;;;6203246;28;20816;-68
2022/09/17 04:29:17;;;;;;;5.40;4.90;;;14.50;99.90;;;;;;6203342;28;20485;-67
2022/09/17 04:32:21;;;;;;;5.20;4.80;;;14.50;99.90;;;;;;6203186;28;20893;-68
2022/09/17 04:35:24;;;;;;;5.93;5.37;;;14.50;99.90;;;;;;6202730;28;20819;-67
2022/09/17 04:38:28;;;;;;;4.87;4.23;;;14.50;99.90;;;;;;6203074;28;20445;-68
2022/09/17 04:41:31;;;;;;;5.20;4.80;;;14.50;99.90;;;;;;6203431;28;20850;-68
2022/09/17 04:44:34;;;;;;;5.20;4.70;;;14.50;99.90;;;;;;6202272;28;20932;-68
2022/09/17 04:47:39;;;;;;;4.97;4.57;;;14.50;99.90;;;;;;6202756;28;20457;-68
2022/09/17 04:50:42;;;;;;;4.23;3.93;;;14.50;99.90;;;;;;6202772;28;20477;-69
2022/09/17 04:53:47;;;;;;;4.70;4.20;;;14.40;99.90;;;;;;6198090;28;20903;-69
2022/09/17 04:56:50;;;;;;;5.43;4.80;;;14.40;99.90;;;;;;6202643;28;20830;-69
2022/09/17 04:59:53;;;;;;;5.00;4.07;;;14.40;99.90;;;;;;6202701;28;20473;-68
2022/09/17 05:02:57;;;;;;;5.87;4.70;;;14.50;99.90;;;;;;6202848;28;20477;-68
2022/09/17 05:06:00;;;;;;;6.63;4.50;;;14.40;99.90;;;;;;6202570;28;20481;-67
2022/09/17 05:09:04;;;;;;;5.40;4.77;;;14.40;99.90;;;;;;6217199;28;20513;-67
2022/09/17 05:12:08;;;;;;;5.20;4.80;;;14.50;99.90;;;;;;6226620;28;20585;-67
2022/09/17 05:15:11;;;;;;;7.13;5.17;;;14.50;99.90;;;;;;6226660;28;21030;-67
2022/09/17 05:18:14;;;;;;;5.33;4.50;;;14.50;99.90;;;;;;6226403;28;20542;-67
2022/09/17 05:21:17;;;;;;;4.77;4.10;;;14.40;99.90;;;;;;6226513;28;20472;-67
2022/09/17 05:24:22;;;;;;;4.23;3.87;;;14.40;99.90;;;;;;6226368;28;21014;-67
2022/09/17 05:27:25;;;;;;;4.70;4.30;;;14.40;99.90;;;;;;6226503;28;20480;-68
2022/09/17 05:30:28;;;;;;;4.67;4.33;;;14.40;99.90;;;;;;6226376;28;20858;-68
2022/09/17 05:33:32;;;;;;;4.50;4.20;;;14.30;99.90;;;;;;6226509;28;20846;-68
2022/09/17 05:36:35;;;;;;;4.77;4.37;;;14.30;99.90;;;;;;6226023;28;20486;-68
2022/09/17 05:39:39;;;;;;;4.90;4.43;;;14.30;99.90;;;;;;6226260;28;20476;-67
2022/09/17 05:42:42;;;;;;;4.00;3.30;;;14.30;99.90;;;;;;6226145;28;20476;-65
2022/09/17 05:45:45;;;;;;;4.83;4.37;;;14.30;99.90;;;;;;6226156;28;20484;-65
2022/09/17 05:48:49;;;;;;;5.00;4.60;;;14.30;99.90;;;;;;6226950;28;20495;-65
2022/09/17 05:51:52;;;;;;;4.73;4.33;;;14.30;99.90;;;;;;6226599;28;20538;-65
2022/09/17 05:54:57;;;;;;;5.93;4.60;;;14.30;99.90;;;;;;6226857;28;20545;-65
2022/09/17 05:58:00;;;;;;;4.23;3.93;;;14.20;99.90;;;;;;6221413;28;20468;-65
2022/09/17 06:01:03;;;;;;;3.97;3.60;;;14.20;99.90;;;;;;6225573;28;20796;-65
2022/09/17 06:04:06;;;;;;;3.87;3.57;;;14.20;99.90;;;;;;6225837;28;20472;-65
2022/09/17 06:07:09;;;;;;;4.13;3.83;;;14.10;99.90;;;;;;6225815;28;20986;-65
2022/09/17 06:10:14;;;;;;;4.40;4.10;;;14.10;99.90;;;;;;6225951;28;20952;-66
2022/09/17 06:13:17;;;;;;;5.90;4.30;;;14.20;99.90;;;;;;6225598;28;20472;-65
2022/09/17 06:16:21;;;;;;;5.27;4.80;;;14.30;99.90;;;;;;6225873;28;20571;-66
2022/09/17 06:19:24;;;;;;;5.10;4.60;;;14.20;99.90;;;;;;6225359;28;20499;-65
2022/09/17 06:22:27;;;;;;;5.77;5.27;;;14.40;99.90;;;;;;6225525;28;20534;-65
2022/09/17 06:25:32;;;;;;;6.17;4.43;;;14.40;99.90;;;;;;6225248;28;20495;-65
2022/09/17 06:28:36;;;;;;;5.43;4.60;;;14.50;99.90;;;;;;6225746;28;20483;-65
2022/09/17 06:31:44;;;;;;;4.73;4.30;;;14.60;99.90;;;;;;6225531;28;20492;-65
2022/09/17 06:34:47;;;;;;;8.10;4.77;;;14.60;99.90;;;;;;6225221;28;20492;-65
2022/09/17 06:37:50;;;;;;;6.43;4.50;;;14.50;99.90;;;;;;6225295;28;20831;-65
2022/09/17 06:40:55;;;;;;;4.70;4.30;;;14.50;99.90;;;;;;6225454;28;20480;-66
2022/09/17 06:43:58;;;;;;;5.80;5.20;;;14.50;99.90;;;;;;6225190;28;20476;-66
2022/09/17 06:47:01;;;;;;;5.60;4.50;;;14.60;99.90;;;;;;6225288;28;20472;-65
2022/09/17 06:50:05;;;;;;;7.37;4.83;;;14.70;99.90;;;;;;6225377;28;20527;-66
2022/09/17 06:53:09;;;;;;;4.70;4.20;;;14.70;99.90;;;;;;6224780;28;20487;-66
2022/09/17 06:56:14;;;;;;;5.67;5.07;;;14.70;99.90;;;;;;6224782;28;20555;-66
2022/09/17 06:59:17;;;;;;;4.37;4.07;;;14.80;99.90;;;;;;6217829;28;20467;-65
2022/09/17 07:02:20;;;;;;;4.77;4.47;;;14.80;99.90;;;;;;6225089;28;20460;-66
2022/09/17 07:05:23;;;;;;;5.80;5.30;;;14.80;99.90;;;;;;6224954;28;20459;-65
2022/09/17 07:08:27;;;;;;;5.53;5.03;;;14.90;99.90;;;;;;6228293;28;20505;-65
2022/09/17 07:11:32;;;;;;;5.77;5.27;;;14.80;99.90;;;;;;6229477;28;20513;-65
2022/09/17 07:14:35;;;;;;;5.83;5.30;;;14.90;99.90;;;;;;6229535;28;20460;-66
2022/09/17 07:17:39;;;;;;;8.70;5.30;;;14.90;99.90;;;;;;6229457;28;20522;-65
2022/09/17 07:20:42;;;;;;;5.60;5.10;;;15.00;99.90;;;;;;6229421;28;20974;-65
2022/09/17 07:23:45;;;;;;;5.20;4.80;;;15.10;99.90;;;;;;6229537;28;20463;-65
2022/09/17 07:26:50;;;;;;;7.03;5.10;;;15.10;99.90;;;;;;6229233;28;20960;-66
2022/09/17 07:29:53;;;;;;;5.00;4.60;;;15.10;99.90;;;;;;6229666;28;20822;-66
2022/09/17 07:33:00;;;;;;;5.90;5.00;;;15.20;99.90;;;;;;6229288;28;20480;-65
2022/09/17 07:36:05;;;;;;;6.60;6.00;;;15.20;99.90;;;;;;6228449;28;20490;-66
2022/09/17 07:39:09;;;;;;;6.77;6.23;;;15.20;99.90;;;;;;6229222;28;20503;-66
2022/09/17 07:42:14;;;;;;;6.87;6.27;;;15.10;99.90;;;;;;6225093;28;20472;-66
2022/09/17 07:45:17;;;;;;;6.60;6.00;;;15.00;99.90;;;;;;6220781;28;20476;-66
2022/09/17 07:48:20;;;;;;;6.40;5.90;;;15.00;99.90;;;;;;6215374;28;20539;-66
2022/09/17 07:51:27;;;;;;;7.27;6.23;;;15.00;99.90;;;;;;6211458;28;20474;-65
2022/09/17 07:54:30;;;;;;;6.73;6.13;;;15.00;99.90;;;;;;6215086;28;20485;-65
2022/09/17 07:57:35;;;;;;;7.40;6.77;;;14.90;99.90;;;;;;6207195;28;20473;-66
2022/09/17 08:00:38;;;;;;;6.63;6.10;;;14.80;99.90;;;;;;6209555;28;20473;-66
2022/09/17 08:03:42;;;;;;;6.60;6.10;;;14.70;99.90;;;;;;6203836;28;20853;-66
2022/09/17 08:06:47;;;;;;;6.10;5.60;;;14.80;99.90;;;;;;6204009;28;20809;-65
2022/09/17 08:09:50;;;;;;;7.40;6.63;;;14.90;99.90;;;;;;6203657;28;20485;-66
2022/09/17 08:12:57;;;;;;;6.00;5.50;;;14.90;99.90;;;;;;6203228;28;20477;-66
2022/09/17 08:16:01;;;;;;;5.53;5.10;;;14.90;99.90;;;;;;6211476;28;20473;-65
2022/09/17 08:19:04;;;;;;;5.97;5.37;;;14.90;99.90;;;;;;6208483;28;20473;-66
2022/09/17 08:22:07;;;;;;;6.33;5.73;;;15.00;99.90;;;;;;6227323;28;20876;-66
2022/09/17 08:25:11;;;;;;;6.20;5.53;;;15.10;99.90;;;;;;6226082;28;21157;-67
2022/09/17 08:28:15;;;;;;;6.00;5.40;;;15.10;99.90;;;;;;6226634;28;20794;-65
2022/09/17 08:31:19;;;;;;;6.80;6.20;;;15.10;99.90;;;;;;6214313;28;20473;-66
2022/09/17 08:34:23;;;;;;;6.93;6.30;;;15.00;99.90;;;;;;6212217;28;20499;-66
2022/09/17 08:53:05;;;;;;;6.87;6.17;;;14.90;99.90;;;;;;6482938;23;20475;-69
2022/09/17 08:56:13;;;;;;;6.67;5.97;;;14.80;99.90;;;;;;6184312;28;20796;-71
2022/09/17 08:59:26;;;;;;;7.30;6.60;;;14.80;99.90;;;;;;6199403;28;20453;-70
2022/09/17 09:02:42;;;;;;;7.63;6.97;;;14.90;99.90;;;;;;6203589;28;20929;-70
2022/09/17 09:05:47;;;;;;;7.73;7.03;;;14.90;99.90;;;;;;6201034;28;20485;-70
2022/09/17 09:08:59;;;;;;;8.40;7.57;;;15.00;99.90;;;;;;6179953;28;20469;-69
2022/09/17 09:12:06;;;;;;;6.83;6.23;;;15.00;99.90;;;;;;6178680;28;21048;-72
2022/09/17 09:15:27;;;;;;;7.23;6.53;;;15.00;99.90;;;;;;6178978;28;20485;-70
2022/09/17 09:18:33;;;;;;;6.47;5.90;;;15.10;99.90;;;;;;6183545;28;20470;-71
2022/09/17 09:21:45;;;;;;;7.70;7.10;;;15.10;99.90;;;;;;6179322;28;20478;-67
2022/09/17 09:25:03;;;;;;;8.80;8.10;;;15.20;99.90;;;;;;6196867;28;20476;-68
2022/09/17 09:28:17;;;;;;;7.53;6.83;;;15.30;99.90;;;;;;6210727;28;20476;-67
2022/09/17 09:31:51;;;;;;;7.70;7.10;;;15.30;99.90;;;;;;6212353;28;20527;-68
2022/09/17 09:34:55;;;;;;;7.23;6.63;;;15.40;99.90;;;;;;6212012;28;20554;-68
2022/09/17 09:38:04;;;;;;;6.53;6.03;;;15.50;99.90;;;;;;6210749;28;20481;-68
2022/09/17 09:41:12;;;;;;;7.87;7.20;;;15.70;99.90;;;;;;6210871;28;20476;-68
2022/09/17 09:44:16;;;;;;;7.50;6.77;;;15.90;99.90;;;;;;6211330;28;20473;-68
2022/09/17 09:47:52;;;;;;;7.20;6.60;;;16.00;99.90;;;;;;6206791;28;20461;-69
2022/09/17 09:51:10;;;;;;;7.20;6.57;;;16.20;99.90;;;;;;6207258;28;20476;-68
2022/09/17 09:54:29;;;;;;;7.00;6.40;;;16.40;99.90;;;;;;6214529;28;20473;-69
2022/09/17 09:57:43;;;;;;;7.93;7.10;;;16.60;99.90;;;;;;6220654;28;20468;-68
2022/09/17 10:00:47;;;;;;;7.07;6.40;;;16.90;99.90;;;;;;6213669;28;20488;-68
2022/09/17 10:03:54;;;;;;;3.93;3.60;;;17.10;99.90;;;;;;6211272;28;20805;-67
2022/09/17 10:07:02;;;;;;;4.03;3.60;;;17.20;99.90;;;;;;6213006;28;20846;-69
2022/09/17 10:10:10;;;;;;;2.73;2.53;;;17.10;99.90;;;;;;6214037;28;20487;-68
2022/09/17 10:13:16;;;;;;;3.13;2.70;;;17.10;99.90;;;;;;6204376;28;20854;-68
2022/09/17 10:16:21;;;;;;;2.60;2.40;;;17.10;99.90;;;;;;6225403;28;20476;-68
2022/09/17 10:19:25;;;;;;;2.00;1.80;;;17.00;99.90;;;;;;6225459;28;20483;-68
2022/09/17 10:22:32;;;;;;;5.67;2.03;;;17.00;99.90;;;;;;6225280;28;20473;-68
2022/09/17 10:25:41;;;;;;;2.80;2.20;;;17.00;99.90;;;;;;6225348;28;21148;-67
2022/09/17 10:28:50;;;;;;;2.40;2.20;;;17.00;99.90;;;;;;6216976;28;20803;-67
2022/09/17 10:31:55;;;;;;;2.30;2.10;;;17.00;99.90;;;;;;6213663;28;20544;-68
2022/09/17 10:35:03;;;;;;;1.50;1.40;;;17.10;99.90;;;;;;6210034;28;20492;-68
2022/09/17 10:38:26;;;;;;;1.17;1.07;;;17.10;99.40;;;;;;6212013;28;20472;-68
2022/09/17 10:41:29;;;;;;;1.30;1.10;;;17.10;97.50;;;;;;6214443;28;20449;-68
2022/09/17 10:44:35;;;;;;;1.70;1.40;;;17.20;97.10;;;;;;6218817;28;20499;-67
2022/09/17 10:47:43;;;;;;;2.70;1.27;;;17.20;98.10;;;;;;6214304;28;20457;-68
2022/09/17 10:50:49;;;;;;;1.17;1.10;;;17.30;97.50;;;;;;6216673;28;20842;-68
2022/09/17 10:54:06;;;;;;;2.00;1.20;;;17.30;96.30;;;;;;6217984;28;20555;-67
2022/09/17 10:57:14;;;;;;;1.43;1.30;;;17.30;96.50;;;;;;6215152;28;20486;-67
2022/09/17 11:00:22;;;;;;;1.63;1.53;;;17.20;95.60;;;;;;6210051;28;20469;-67
2022/09/17 11:03:53;;;;;;;2.10;1.87;;;17.00;96.30;;;;;;6213392;28;20465;-67
2022/09/17 11:07:18;;;;;;;2.03;1.40;;;16.90;95.30;;;;;;6212440;28;20476;-67
2022/09/17 11:10:27;;;;;;;2.10;1.40;;;16.80;96.40;;;;;;6212157;28;20480;-67
2022/09/17 11:13:38;;;;;;;1.47;1.37;;;16.90;95.60;;;;;;6214850;28;20464;-67
2022/09/17 11:16:50;;;;;;;1.70;1.60;;;16.90;95.60;;;;;;6211416;28;20476;-67
2022/09/17 11:20:01;;;;;;;2.33;2.00;;;16.90;94.30;;;;;;6216612;28;20483;-68
2022/09/17 11:23:17;;;;;;;2.37;2.10;;;16.90;94.10;;;;;;6217860;28;20487;-68
2022/09/17 11:26:32;;;;;;;1.77;1.67;;;16.80;94.80;;;;;;6214792;28;20500;-68
2022/09/17 11:30:03;;;;;;;1.40;1.30;;;16.90;96.00;;;;;;6215128;28;20433;-68
2022/09/17 11:33:42;;;;;;;2.20;1.53;;;17.10;96.40;;;;;;6216199;28;20480;-67
2022/09/17 11:36:54;;;;;;;2.23;2.03;;;17.30;96.80;;;;;;6209087;28;20469;-67
2022/09/17 11:40:00;;;;;;;2.13;1.93;;;17.50;95.90;;;;;;6211177;28;20536;-68
2022/09/17 11:43:14;;;;;;;1.50;1.40;;;17.60;96.30;;;;;;6221488;28;20464;-68
2022/09/17 11:46:22;;;;;;;2.73;1.90;;;17.50;95.50;;;;;;6228545;28;20469;-68
2022/09/17 11:49:31;;;;;;;1.87;1.77;;;17.60;95.90;;;;;;6228648;28;20530;-68
2022/09/17 11:52:44;;;;;;;2.60;1.77;;;17.60;94.40;;;;;;6227690;28;20989;-68
2022/09/17 11:55:52;;;;;;;1.40;1.30;;;17.60;93.30;;;;;;6221104;28;20527;-68
2022/09/17 11:59:00;;;;;;;2.73;1.43;;;17.40;92.40;;;;;;6185587;28;20477;-69
2022/09/17 12:02:10;;;;;;;1.10;1.00;;;17.30;92.40;;;;;;6179667;28;20529;-68
2022/09/17 12:05:19;;;;;;;2.93;1.33;;;17.30;91.30;;;;;;6179444;28;20779;-68
2022/09/17 12:08:27;;;;;;;1.67;1.00;;;17.20;90.20;;;;;;6179184;28;20489;-69
2022/09/17 12:11:35;;;;;;;1.23;1.13;;;17.20;89.20;;;;;;6179360;28;20588;-68
2022/09/17 12:14:48;;;;;;;3.90;1.10;;;17.10;89.20;;;;;;6179568;28;20523;-68
2022/09/17 12:18:03;;;;;;;0.90;0.90;;;17.20;90.80;;;;;;6179677;28;20838;-68
2022/09/17 12:21:30;;;;;;;1.07;0.97;;;17.20;90.80;;;;;;6170407;28;20888;-67
2022/09/17 12:24:34;;;;;;;1.20;0.90;;;17.10;86.90;;;;;;6181107;28;20489;-68
2022/09/17 12:27:46;;;;;;;1.23;0.90;;;16.90;84.90;;;;;;6181908;28;20547;-68
2022/09/17 12:30:54;;;;;;;1.30;0.90;;;16.80;85.00;;;;;;6201408;28;20488;-72
2022/09/17 12:34:02;;;;;;;0.70;0.70;;;16.70;84.60;;;;;;6203671;28;20480;-70
2022/09/17 12:37:13;;;;;;;1.60;0.80;;;16.60;84.60;;;;;;6203825;28;20477;-68
2022/09/17 12:43:51;;;;;;;2.53;1.30;;;16.50;80.80;;;;;;6154766;28;20785;-70
2022/09/17 12:47:09;;;;;;;0.73;0.73;;;16.40;80.70;;;;;;6155147;28;20970;-69
2022/09/17 12:50:20;;;;;;;3.40;1.27;;;16.20;81.10;;;;;;6155961;28;20479;-69
2022/09/17 12:53:29;;;;;;;2.00;0.83;;;16.20;81.10;;;;;;6130402;28;20452;-69
2022/09/17 12:56:49;;;;;;;1.73;1.00;;;16.10;82.60;;;;;;6132753;29;20466;-69
2022/09/17 12:59:59;;;;;;;1.90;0.90;;;16.10;81.00;;;;;;6109221;29;20484;-68
2022/09/17 13:03:19;;;;;;;2.20;0.97;;;16.10;79.70;;;;;;6116568;29;20476;-67
2022/09/17 13:07:10;;;;;;;1.10;0.83;;;16.10;79.80;;;;;;6130661;29;20480;-69
2022/09/17 13:10:51;;;;;;;1.33;1.20;;;16.10;81.00;;;;;;6130208;29;20979;-68
2022/09/17 13:14:03;;;;;;;2.50;0.90;;;16.20;80.00;;;;;;6135290;29;20487;-68
2022/09/17 13:17:11;;;;;;;2.03;0.80;;;16.10;78.30;;;;;;6132514;29;20484;-69
2022/09/17 13:20:21;;;;;;;2.63;0.80;;;16.10;78.90;;;;;;6133984;29;20812;-69
2022/09/17 13:23:35;;;;;;;1.17;0.70;;;16.10;76.90;;;;;;6126069;28;20515;-70
2022/09/17 13:26:39;;;;;;;1.37;0.90;;;16.10;77.80;;;;;;6130414;29;20903;-69
2022/09/17 13:29:59;;;;;;;3.07;0.90;;;16.10;76.90;;;;;;6130252;29;20498;-68
2022/09/17 13:33:02;;;;;;;1.90;0.93;;;16.10;77.50;;;;;;6129040;29;20539;-67
2022/09/17 13:36:35;;;;;;;1.00;0.80;;;16.00;76.90;;;;;;6129917;29;20987;-69
2022/09/17 13:39:42;;;;;;;1.00;0.73;;;15.90;80.00;;;;;;6130129;29;20490;-68
2022/09/17 13:42:48;;;;;;;1.13;0.90;;;16.00;80.10;;;;;;6129720;29;20543;-68
2022/09/17 13:46:14;;;;;;;1.97;1.10;;;16.10;80.20;;;;;;6132068;29;20537;-67
2022/09/17 13:49:19;;;;;;;2.30;1.57;;;16.10;76.80;;;;;;6132806;29;20487;-67
2022/09/17 13:52:38;;;;;;;1.17;1.07;;;16.00;77.40;;;;;;6132598;29;20866;-68
2022/09/17 13:55:44;;;;;;;1.13;1.07;;;16.10;81.00;;;;;;6130084;29;20539;-69
2022/09/17 13:58:47;;;;;;;0.90;0.83;;;16.10;81.10;;;;;;6130769;29;20495;-68
2022/09/17 14:02:17;;;;;;;1.70;0.80;;;16.00;80.90;;;;;;6131406;29;20491;-68
2022/09/17 14:05:32;;;;;;;1.70;0.87;;;16.20;81.10;;;;;;6122229;29;20482;-71
2022/09/17 14:08:48;;;;;;;1.40;1.13;;;16.20;80.50;;;;;;6128940;28;20519;-68
2022/09/17 14:11:51;;;;;;;2.80;1.13;;;16.30;80.40;;;;;;6128493;29;20491;-69
2022/09/17 14:14:55;;;;;;;1.47;1.23;;;16.30;80.30;;;;;;6132314;28;20542;-70
2022/09/17 14:18:01;;;;;;;1.50;1.40;;;16.30;80.40;;;;;;6140730;29;20534;-70
2022/09/17 14:21:15;;;;;;;1.40;1.30;;;16.30;81.20;;;;;;6132239;28;20484;-71
2022/09/17 14:24:22;;;;;;;2.50;1.60;;;16.30;81.20;;;;;;6129469;29;21018;-70
2022/09/17 14:27:53;;;;;;;3.07;1.40;;;16.40;82.00;;;;;;6130112;28;20479;-70
2022/09/17 14:30:56;;;;;;;1.97;1.33;;;16.40;84.20;;;;;;6120863;28;20518;-69
2022/09/17 14:34:04;;;;;;;3.10;1.53;;;16.50;84.00;;;;;;6129928;28;20490;-69
2022/09/17 14:37:12;;;;;;;2.10;1.80;;;16.50;82.80;;;;;;6126955;29;20523;-69
2022/09/17 14:40:18;;;;;;;3.27;1.70;;;16.50;82.70;;;;;;6128340;29;20501;-69
2022/09/17 14:43:30;;;;;;;2.73;1.97;;;16.50;83.40;;;;;;6128674;29;20471;-70
2022/09/17 14:46:35;;;;;;;2.27;1.70;;;16.50;83.40;;;;;;6128914;29;20968;-70
2022/09/17 14:49:40;;;;;;;4.40;1.90;;;16.50;82.70;;;;;;6128720;29;20592;-70
2022/09/17 14:52:48;;;;;;;2.47;1.83;;;16.50;83.60;;;;;;6125491;29;20495;-69
2022/09/17 14:55:51;;;;;;;2.93;1.67;;;16.50;83.50;;;;;;6128383;29;20472;-69
2022/09/17 14:58:55;;;;;;;5.13;1.77;;;16.50;81.90;;;;;;6128868;29;20971;-69
2022/09/17 15:01:58;;;;;;;2.00;1.33;;;16.50;82.90;;;;;;6128623;29;20845;-70
2022/09/17 15:05:17;;;;;;;3.10;1.83;;;16.50;85.00;;;;;;6128862;29;20499;-69
2022/09/17 15:08:22;;;;;;;1.93;1.63;;;16.40;86.20;;;;;;6105425;29;20485;-69
2022/09/17 15:11:25;;;;;;;1.97;1.53;;;16.40;86.90;;;;;;6105249;29;20484;-70
2022/09/17 15:14:30;;;;;;;1.93;1.73;;;16.30;87.50;;;;;;6105537;29;20488;-69
2022/09/17 15:17:35;;;;;;;1.83;1.73;;;16.30;88.60;;;;;;6105518;29;20456;-69
2022/09/17 15:20:39;;;;;;;2.50;1.50;;;16.20;86.90;;;;;;6105756;29;20468;-68
2022/09/17 15:23:44;;;;;;;4.00;2.30;;;16.10;86.80;;;;;;6105882;29;20516;-69
2022/09/17 15:26:50;;;;;;;1.80;1.70;;;16.00;86.80;;;;;;6106155;29;20529;-69
2022/09/17 15:29:57;;;;;;;2.80;2.17;;;15.90;89.50;;;;;;6108460;29;20484;-70
2022/09/17 15:33:01;;;;;;;2.63;2.40;;;15.90;90.40;;;;;;6109515;29;20479;-69
2022/09/17 15:36:18;;;;;;;2.93;2.37;;;15.90;90.00;;;;;;6109502;29;20488;-69
2022/09/17 15:39:32;;;;;;;2.73;2.53;;;15.90;90.40;;;;;;6109306;29;20473;-70
2022/09/17 15:42:35;;;;;;;2.37;1.97;;;15.80;90.10;;;;;;6116941;29;20492;-69
2022/09/17 15:45:41;;;;;;;3.37;2.07;;;15.80;88.90;;;;;;6109916;29;20476;-66
2022/09/17 15:48:44;;;;;;;2.90;1.30;;;15.70;87.60;;;;;;6110399;29;20480;-68
2022/09/17 15:51:48;;;;;;;1.70;1.60;;;15.50;87.80;;;;;;6109682;29;20540;-67
2022/09/17 15:54:52;;;;;;;3.23;1.60;;;15.50;87.40;;;;;;6109879;29;20827;-67
2022/09/17 15:57:55;;;;;;;2.50;1.47;;;15.50;89.00;;;;;;6110493;29;20472;-66
2022/09/17 16:01:37;;;;;;;2.33;1.60;;;15.20;90.80;;;;;;6111011;29;20860;-66
2022/09/17 16:04:40;;;;;;;1.30;1.20;;;15.20;92.00;;;;;;6109588;29;20979;-71
2022/09/17 16:07:45;;;;;;;2.30;2.10;;;15.20;92.90;;;;;;6111346;29;20980;-70
2022/09/17 16:10:48;;;;;;;2.23;2.03;;;15.20;93.90;;;;;;6108846;29;20481;-70
2022/09/17 16:13:53;;;;;;;3.30;2.67;;;15.20;95.40;;;;;;6108711;29;20484;-71
2022/09/17 16:16:58;;;;;;;2.70;2.20;;;15.20;96.80;;;;;;6108588;29;20468;-72
2022/09/17 16:20:08;;;;;;;2.20;2.00;;;15.20;97.40;;;;;;6108698;29;20864;-69
2022/09/17 16:23:13;;;;;;;2.53;2.33;;;15.20;97.80;;;;;;6108288;29;20860;-71
2022/09/17 16:26:19;;;;;;;5.40;2.60;;;15.20;98.10;;;;;;6109068;29;20485;-71
2022/09/17 16:29:22;;;;;;;1.93;1.83;;;15.20;97.90;;;;;;6108038;29;20481;-71
2022/09/17 16:32:25;;;;;;;2.37;1.90;;;15.20;95.30;;;;;;6107871;28;20504;-67
2022/09/17 16:35:28;;;;;;;4.70;2.40;;;15.20;95.20;;;;;;6095496;29;20547;-67
2022/09/17 16:38:33;;;;;;;1.33;1.00;;;15.20;95.60;;;;;;6107654;28;20485;-67